<?xml version="1.0" encoding="UTF-8" standalone="no" ?>
<gpx xmlns="http://www.topografix.com/GPX/1/1" xmlns:xsi="http://www.w3.org/2001/XMLSchema-instance" xsi:schemaLocation="http://www.topografix.com/GPX/1/1 http://www.topografix.com/GPX/1/1/gpx.xsd" version="1.1" creator="VisuGPX - https://www.visugpx.com">
  <metadata>
    <name>Angervilliers</name>
    <desc><![CDATA[randonnée -de 10km environ 2h30 de marche]]></desc>
  </metadata>
  <trk>
    <name><![CDATA[Angervilliers_1113331]]></name>
    <trkseg>
      <trkpt lat="48.6036" lon="2.05272">
        <ele>128</ele>
        <time>2017-12-15T08:45:00Z</time>
      </trkpt>
      <trkpt lat="48.60398" lon="2.05299">
        <ele>128</ele>
        <time>2017-12-15T08:45:42Z</time>
      </trkpt>
      <trkpt lat="48.60703" lon="2.05507">
        <ele>123</ele>
        <time>2017-12-15T08:51:16Z</time>
      </trkpt>
      <trkpt lat="48.60722" lon="2.05561">
        <ele>122</ele>
        <time>2017-12-15T08:51:57Z</time>
      </trkpt>
      <trkpt lat="48.60737" lon="2.05608">
        <ele>121</ele>
        <time>2017-12-15T08:52:31Z</time>
      </trkpt>
      <trkpt lat="48.60749" lon="2.05655">
        <ele>118</ele>
        <time>2017-12-15T08:53:05Z</time>
      </trkpt>
      <trkpt lat="48.60767" lon="2.05689">
        <ele>119</ele>
        <time>2017-12-15T08:53:34Z</time>
      </trkpt>
      <trkpt lat="48.60783" lon="2.05734">
        <ele>119</ele>
        <time>2017-12-15T08:54:07Z</time>
      </trkpt>
      <trkpt lat="48.60796" lon="2.05779">
        <ele>119</ele>
        <time>2017-12-15T08:54:40Z</time>
      </trkpt>
      <trkpt lat="48.60811" lon="2.05804">
        <ele>118</ele>
        <time>2017-12-15T08:55:02Z</time>
      </trkpt>
      <trkpt lat="48.60806" lon="2.05859">
        <ele>118</ele>
        <time>2017-12-15T08:55:39Z</time>
      </trkpt>
      <trkpt lat="48.60798" lon="2.05942">
        <ele>119</ele>
        <time>2017-12-15T08:56:34Z</time>
      </trkpt>
      <trkpt lat="48.60819" lon="2.06023">
        <ele>122</ele>
        <time>2017-12-15T08:57:32Z</time>
      </trkpt>
      <trkpt lat="48.60795" lon="2.06176">
        <ele>123</ele>
        <time>2017-12-15T08:59:16Z</time>
      </trkpt>
      <trkpt lat="48.60774" lon="2.06211">
        <ele>122</ele>
        <time>2017-12-15T08:59:47Z</time>
      </trkpt>
      <trkpt lat="48.60737" lon="2.0626">
        <ele>122</ele>
        <time>2017-12-15T09:00:36Z</time>
      </trkpt>
      <trkpt lat="48.6049" lon="2.0617">
        <ele>122</ele>
        <time>2017-12-15T09:04:50Z</time>
      </trkpt>
      <trkpt lat="48.6045" lon="2.06169">
        <ele>124</ele>
        <time>2017-12-15T09:05:30Z</time>
      </trkpt>
      <trkpt lat="48.60417" lon="2.06184">
        <ele>125</ele>
        <time>2017-12-15T09:06:05Z</time>
      </trkpt>
      <trkpt lat="48.60385" lon="2.06199">
        <ele>123</ele>
        <time>2017-12-15T09:06:38Z</time>
      </trkpt>
      <trkpt lat="48.60358" lon="2.06162">
        <ele>123</ele>
        <time>2017-12-15T09:07:15Z</time>
      </trkpt>
      <trkpt lat="48.60343" lon="2.06161">
        <ele>122</ele>
        <time>2017-12-15T09:07:30Z</time>
      </trkpt>
      <trkpt lat="48.60336" lon="2.06116">
        <ele>123</ele>
        <time>2017-12-15T09:08:00Z</time>
      </trkpt>
      <trkpt lat="48.60318" lon="2.061">
        <ele>124</ele>
        <time>2017-12-15T09:08:21Z</time>
      </trkpt>
      <trkpt lat="48.60271" lon="2.06118">
        <ele>123</ele>
        <time>2017-12-15T09:09:10Z</time>
      </trkpt>
      <trkpt lat="48.60216" lon="2.06123">
        <ele>124</ele>
        <time>2017-12-15T09:10:05Z</time>
      </trkpt>
      <trkpt lat="48.60071" lon="2.06185">
        <ele>122</ele>
        <time>2017-12-15T09:12:35Z</time>
      </trkpt>
      <trkpt lat="48.59994" lon="2.05938">
        <ele>125</ele>
        <time>2017-12-15T09:15:36Z</time>
      </trkpt>
      <trkpt lat="48.6021" lon="2.05822">
        <ele>128</ele>
        <time>2017-12-15T09:19:25Z</time>
      </trkpt>
      <trkpt lat="48.60155" lon="2.05554">
        <ele>128</ele>
        <time>2017-12-15T09:22:31Z</time>
      </trkpt>
      <trkpt lat="48.60092" lon="2.0526">
        <ele>129</ele>
        <time>2017-12-15T09:25:55Z</time>
      </trkpt>
      <trkpt lat="48.60051" lon="2.05062">
        <ele>133</ele>
        <time>2017-12-15T09:28:12Z</time>
      </trkpt>
      <trkpt lat="48.59928" lon="2.04977">
        <ele>143</ele>
        <time>2017-12-15T09:30:28Z</time>
      </trkpt>
      <trkpt lat="48.59914" lon="2.04963">
        <ele>145</ele>
        <time>2017-12-15T09:30:45Z</time>
      </trkpt>
      <trkpt lat="48.59883" lon="2.04942">
        <ele>147</ele>
        <time>2017-12-15T09:31:19Z</time>
      </trkpt>
      <trkpt lat="48.5959" lon="2.04747">
        <ele>168</ele>
        <time>2017-12-15T09:36:39Z</time>
      </trkpt>
      <trkpt lat="48.59619" lon="2.04313">
        <ele>167</ele>
        <time>2017-12-15T09:41:28Z</time>
      </trkpt>
      <trkpt lat="48.59909" lon="2.04396">
        <ele>163</ele>
        <time>2017-12-15T09:46:23Z</time>
      </trkpt>
      <trkpt lat="48.5985" lon="2.041">
        <ele>164</ele>
        <time>2017-12-15T09:49:47Z</time>
      </trkpt>
      <trkpt lat="48.59578" lon="2.04042">
        <ele>168</ele>
        <time>2017-12-15T09:54:22Z</time>
      </trkpt>
      <trkpt lat="48.59505" lon="2.04211">
        <ele>167</ele>
        <time>2017-12-15T09:56:35Z</time>
      </trkpt>
      <trkpt lat="48.59516" lon="2.04249">
        <ele>166</ele>
        <time>2017-12-15T09:57:03Z</time>
      </trkpt>
      <trkpt lat="48.59523" lon="2.0429">
        <ele>166</ele>
        <time>2017-12-15T09:57:31Z</time>
      </trkpt>
      <trkpt lat="48.5953" lon="2.04333">
        <ele>165</ele>
        <time>2017-12-15T09:58:00Z</time>
      </trkpt>
      <trkpt lat="48.59529" lon="2.04378">
        <ele>166</ele>
        <time>2017-12-15T09:58:30Z</time>
      </trkpt>
      <trkpt lat="48.5948" lon="2.04314">
        <ele>163</ele>
        <time>2017-12-15T09:59:35Z</time>
      </trkpt>
      <trkpt lat="48.5946" lon="2.04298">
        <ele>162</ele>
        <time>2017-12-15T09:59:57Z</time>
      </trkpt>
      <trkpt lat="48.59425" lon="2.04262">
        <ele>159</ele>
        <time>2017-12-15T10:00:40Z</time>
      </trkpt>
      <trkpt lat="48.59373" lon="2.04256">
        <ele>153</ele>
        <time>2017-12-15T10:01:32Z</time>
      </trkpt>
      <trkpt lat="48.59301" lon="2.04198">
        <ele>147</ele>
        <time>2017-12-15T10:02:54Z</time>
      </trkpt>
      <trkpt lat="48.59244" lon="2.0412">
        <ele>142</ele>
        <time>2017-12-15T10:04:11Z</time>
      </trkpt>
      <trkpt lat="48.59205" lon="2.04111">
        <ele>139</ele>
        <time>2017-12-15T10:04:51Z</time>
      </trkpt>
      <trkpt lat="48.59185" lon="2.04046">
        <ele>136</ele>
        <time>2017-12-15T10:05:38Z</time>
      </trkpt>
      <trkpt lat="48.59183" lon="2.03971">
        <ele>133</ele>
        <time>2017-12-15T10:06:28Z</time>
      </trkpt>
      <trkpt lat="48.59181" lon="2.03936">
        <ele>132</ele>
        <time>2017-12-15T10:06:51Z</time>
      </trkpt>
      <trkpt lat="48.59176" lon="2.03898">
        <ele>129</ele>
        <time>2017-12-15T10:07:17Z</time>
      </trkpt>
      <trkpt lat="48.59175" lon="2.03606">
        <ele>129</ele>
        <time>2017-12-15T10:10:30Z</time>
      </trkpt>
      <trkpt lat="48.59231" lon="2.03569">
        <ele>136</ele>
        <time>2017-12-15T10:11:31Z</time>
      </trkpt>
      <trkpt lat="48.59267" lon="2.0358">
        <ele>142</ele>
        <time>2017-12-15T10:12:08Z</time>
      </trkpt>
      <trkpt lat="48.59338" lon="2.03579">
        <ele>155</ele>
        <time>2017-12-15T10:13:20Z</time>
      </trkpt>
      <trkpt lat="48.59386" lon="2.03567">
        <ele>163</ele>
        <time>2017-12-15T10:14:09Z</time>
      </trkpt>
      <trkpt lat="48.59398" lon="2.03488">
        <ele>164</ele>
        <time>2017-12-15T10:15:03Z</time>
      </trkpt>
      <trkpt lat="48.594" lon="2.0344">
        <ele>165</ele>
        <time>2017-12-15T10:15:35Z</time>
      </trkpt>
      <trkpt lat="48.59399" lon="2.03398">
        <ele>164</ele>
        <time>2017-12-15T10:16:03Z</time>
      </trkpt>
      <trkpt lat="48.59393" lon="2.03339">
        <ele>163</ele>
        <time>2017-12-15T10:16:42Z</time>
      </trkpt>
      <trkpt lat="48.59396" lon="2.03276">
        <ele>162</ele>
        <time>2017-12-15T10:17:24Z</time>
      </trkpt>
      <trkpt lat="48.59406" lon="2.03242">
        <ele>163</ele>
        <time>2017-12-15T10:17:49Z</time>
      </trkpt>
      <trkpt lat="48.59415" lon="2.03224">
        <ele>164</ele>
        <time>2017-12-15T10:18:04Z</time>
      </trkpt>
      <trkpt lat="48.59443" lon="2.03206">
        <ele>166</ele>
        <time>2017-12-15T10:18:34Z</time>
      </trkpt>
      <trkpt lat="48.59481" lon="2.03209">
        <ele>169</ele>
        <time>2017-12-15T10:19:12Z</time>
      </trkpt>
      <trkpt lat="48.59557" lon="2.0323">
        <ele>170</ele>
        <time>2017-12-15T10:20:29Z</time>
      </trkpt>
      <trkpt lat="48.59583" lon="2.03217">
        <ele>169</ele>
        <time>2017-12-15T10:20:57Z</time>
      </trkpt>
      <trkpt lat="48.59635" lon="2.03227">
        <ele>168</ele>
        <time>2017-12-15T10:21:49Z</time>
      </trkpt>
      <trkpt lat="48.59677" lon="2.03247">
        <ele>167</ele>
        <time>2017-12-15T10:22:33Z</time>
      </trkpt>
      <trkpt lat="48.59909" lon="2.03337">
        <ele>167</ele>
        <time>2017-12-15T10:26:33Z</time>
      </trkpt>
      <trkpt lat="48.59755" lon="2.03654">
        <ele>165</ele>
        <time>2017-12-15T10:30:53Z</time>
      </trkpt>
      <trkpt lat="48.59819" lon="2.03675">
        <ele>161</ele>
        <time>2017-12-15T10:31:58Z</time>
      </trkpt>
      <trkpt lat="48.60095" lon="2.03741">
        <ele>146</ele>
        <time>2017-12-15T10:36:38Z</time>
      </trkpt>
      <trkpt lat="48.60094" lon="2.03762">
        <ele>145</ele>
        <time>2017-12-15T10:36:52Z</time>
      </trkpt>
      <trkpt lat="48.60104" lon="2.03796">
        <ele>144</ele>
        <time>2017-12-15T10:37:17Z</time>
      </trkpt>
      <trkpt lat="48.60185" lon="2.03833">
        <ele>141</ele>
        <time>2017-12-15T10:38:41Z</time>
      </trkpt>
      <trkpt lat="48.60214" lon="2.0384">
        <ele>139</ele>
        <time>2017-12-15T10:39:11Z</time>
      </trkpt>
      <trkpt lat="48.60248" lon="2.03848">
        <ele>137</ele>
        <time>2017-12-15T10:39:45Z</time>
      </trkpt>
      <trkpt lat="48.60283" lon="2.03852">
        <ele>135</ele>
        <time>2017-12-15T10:40:20Z</time>
      </trkpt>
      <trkpt lat="48.60325" lon="2.03863">
        <ele>133</ele>
        <time>2017-12-15T10:41:03Z</time>
      </trkpt>
      <trkpt lat="48.6037" lon="2.03874">
        <ele>131</ele>
        <time>2017-12-15T10:41:49Z</time>
      </trkpt>
      <trkpt lat="48.60407" lon="2.03883">
        <ele>129</ele>
        <time>2017-12-15T10:42:26Z</time>
      </trkpt>
      <trkpt lat="48.60437" lon="2.03891">
        <ele>127</ele>
        <time>2017-12-15T10:42:57Z</time>
      </trkpt>
      <trkpt lat="48.60472" lon="2.03902">
        <ele>124</ele>
        <time>2017-12-15T10:43:32Z</time>
      </trkpt>
      <trkpt lat="48.60466" lon="2.03968">
        <ele>127</ele>
        <time>2017-12-15T10:44:17Z</time>
      </trkpt>
      <trkpt lat="48.60455" lon="2.04039">
        <ele>132</ele>
        <time>2017-12-15T10:45:05Z</time>
      </trkpt>
      <trkpt lat="48.60447" lon="2.04108">
        <ele>134</ele>
        <time>2017-12-15T10:45:51Z</time>
      </trkpt>
      <trkpt lat="48.60438" lon="2.04179">
        <ele>136</ele>
        <time>2017-12-15T10:46:39Z</time>
      </trkpt>
      <trkpt lat="48.60434" lon="2.04232">
        <ele>137</ele>
        <time>2017-12-15T10:47:14Z</time>
      </trkpt>
      <trkpt lat="48.60413" lon="2.04295">
        <ele>140</ele>
        <time>2017-12-15T10:48:01Z</time>
      </trkpt>
      <trkpt lat="48.60398" lon="2.04341">
        <ele>143</ele>
        <time>2017-12-15T10:48:35Z</time>
      </trkpt>
      <trkpt lat="48.6038" lon="2.04389">
        <ele>147</ele>
        <time>2017-12-15T10:49:12Z</time>
      </trkpt>
      <trkpt lat="48.60376" lon="2.04425">
        <ele>148</ele>
        <time>2017-12-15T10:49:36Z</time>
      </trkpt>
      <trkpt lat="48.60383" lon="2.04468">
        <ele>147</ele>
        <time>2017-12-15T10:50:05Z</time>
      </trkpt>
      <trkpt lat="48.60391" lon="2.04522">
        <ele>146</ele>
        <time>2017-12-15T10:50:42Z</time>
      </trkpt>
      <trkpt lat="48.604" lon="2.04571">
        <ele>145</ele>
        <time>2017-12-15T10:51:16Z</time>
      </trkpt>
      <trkpt lat="48.60408" lon="2.04629">
        <ele>146</ele>
        <time>2017-12-15T10:51:55Z</time>
      </trkpt>
      <trkpt lat="48.60415" lon="2.04683">
        <ele>145</ele>
        <time>2017-12-15T10:52:31Z</time>
      </trkpt>
      <trkpt lat="48.60428" lon="2.04719">
        <ele>143</ele>
        <time>2017-12-15T10:52:58Z</time>
      </trkpt>
      <trkpt lat="48.60446" lon="2.04735">
        <ele>142</ele>
        <time>2017-12-15T10:53:19Z</time>
      </trkpt>
      <trkpt lat="48.6048" lon="2.04796">
        <ele>136</ele>
        <time>2017-12-15T10:54:12Z</time>
      </trkpt>
      <trkpt lat="48.60514" lon="2.04855">
        <ele>131</ele>
        <time>2017-12-15T10:55:04Z</time>
      </trkpt>
      <trkpt lat="48.60552" lon="2.04917">
        <ele>128</ele>
        <time>2017-12-15T10:56:00Z</time>
      </trkpt>
      <trkpt lat="48.60588" lon="2.04974">
        <ele>128</ele>
        <time>2017-12-15T10:56:52Z</time>
      </trkpt>
      <trkpt lat="48.6061" lon="2.05011">
        <ele>127</ele>
        <time>2017-12-15T10:57:25Z</time>
      </trkpt>
      <trkpt lat="48.60631" lon="2.05042">
        <ele>126</ele>
        <time>2017-12-15T10:57:54Z</time>
      </trkpt>
      <trkpt lat="48.60642" lon="2.05066">
        <ele>126</ele>
        <time>2017-12-15T10:58:14Z</time>
      </trkpt>
      <trkpt lat="48.60617" lon="2.05092">
        <ele>125</ele>
        <time>2017-12-15T10:58:44Z</time>
      </trkpt>
      <trkpt lat="48.60572" lon="2.05138">
        <ele>125</ele>
        <time>2017-12-15T10:59:38Z</time>
      </trkpt>
      <trkpt lat="48.60531" lon="2.05182">
        <ele>125</ele>
        <time>2017-12-15T11:00:29Z</time>
      </trkpt>
      <trkpt lat="48.60487" lon="2.05221">
        <ele>126</ele>
        <time>2017-12-15T11:01:20Z</time>
      </trkpt>
      <trkpt lat="48.60457" lon="2.05249">
        <ele>127</ele>
        <time>2017-12-15T11:01:55Z</time>
      </trkpt>
      <trkpt lat="48.60433" lon="2.05273">
        <ele>127</ele>
        <time>2017-12-15T11:02:24Z</time>
      </trkpt>
      <trkpt lat="48.60404" lon="2.0529">
        <ele>127</ele>
        <time>2017-12-15T11:02:55Z</time>
      </trkpt>
      <trkpt lat="48.60359" lon="2.05271">
        <ele>128</ele>
        <time>2017-12-15T11:03:41Z</time>
      </trkpt>
    </trkseg>
  </trk>
</gpx>